Matt Devall — WCQ7740 — position and weather

sailwx.info

Track history (hours):
 
Tides and Currents Weather Stations Pressure Air Temp Water Temp Dewpoint Dewpoint Depression Visibility Wind Speed Wind Dir Waves Ship Positions

Matt Devall

Owner: MATT DEVALL INC, HACKBERRY, LA. More information available from US FCC via Universal Licensing System and Coast Guard Vessel Documentation Center.

Last reported at 2017-Nov-20 00:30 UTC. Time now 2017-Nov-22 09:20 UTC.
Position N 30°09' W 093°20'.

Length 17 m; draft 2.6 m.

MMSI: 366974120.

Date/timePositionNaut miles runAvg speedWind from/ knotsBaromVisibWave heightAir tempDewpointWater temp
2017-Nov-20 00:30N 30°09' W 093°20'2 3.7
2017-Nov-20 00:00N 30°11' W 093°19'2 4.3
2017-Nov-19 23:30N 30°09' W 093°20'3 6.9
2017-Nov-19 23:00N 30°06' W 093°20'2 3.5
2017-Nov-19 22:30N 30°04' W 093°21'0 0.9
2017-Nov-19 22:00N 30°05' W 093°20'0 0.0
2017-Nov-19 21:30N 30°05' W 093°20'0 0.0
2017-Nov-19 21:00N 30°05' W 093°20'0 0.0
2017-Nov-19 20:30N 30°05' W 093°20'0 0.1
2017-Nov-19 20:00N 30°05' W 093°20'1 1.8
2017-Nov-19 19:30N 30°05' W 093°20'1 1.2
2017-Nov-19 19:00N 30°06' W 093°19'0 0.2
2017-Nov-19 18:30N 30°06' W 093°19'2 3.2
2017-Nov-19 18:00N 30°05' W 093°20'0 0.1
2017-Nov-19 17:30N 30°05' W 093°20'0 0.0
2017-Nov-19 17:00N 30°05' W 093°20'0 0.0
2017-Nov-19 16:30N 30°05' W 093°20'0 0.0
2017-Nov-19 16:00N 30°05' W 093°20'0 0.0
2017-Nov-19 15:30N 30°05' W 093°20'0 0.0
2017-Nov-19 15:00N 30°05' W 093°20'0 0.0
2017-Nov-19 14:30N 30°05' W 093°20'0 0.0
2017-Nov-19 14:00N 30°05' W 093°20'0 0.0
2017-Nov-19 13:30N 30°05' W 093°20'0 0.0
2017-Nov-19 13:00N 30°05' W 093°20'1 1.0
2017-Nov-19 12:30N 30°05' W 093°20'0 0.0
2017-Nov-19 12:00N 30°05' W 093°20'0 0.4
2017-Nov-19 11:30N 30°05' W 093°20'0 0.9
2017-Nov-19 11:00N 30°05' W 093°20'3 5.9
2017-Nov-19 10:30N 30°08' W 093°20'0 0.3
2017-Nov-19 10:00N 30°08' W 093°19'0 0.0
2017-Nov-19 09:30N 30°08' W 093°19'0 0.0
2017-Nov-19 09:00N 30°08' W 093°19'0 0.0
2017-Nov-19 08:30N 30°08' W 093°19'0 0.3
2017-Nov-19 08:00N 30°08' W 093°19'0 0.1
2017-Nov-19 07:30N 30°08' W 093°19'2 3.0
2017-Nov-19 07:00N 30°07' W 093°20'2 3.8
2017-Nov-19 06:30N 30°05' W 093°20'0 0.0
2017-Nov-19 06:00N 30°05' W 093°20'0 0.0
2017-Nov-19 05:30N 30°05' W 093°20'0 0.0
2017-Nov-19 05:00N 30°05' W 093°20'0 0.0
2017-Nov-19 04:30N 30°05' W 093°20'0 0.0
2017-Nov-19 04:00N 30°05' W 093°20'0 0.0
2017-Nov-19 03:30N 30°05' W 093°20'0 0.0
2017-Nov-19 03:00N 30°05' W 093°20'0 0.0
2017-Nov-19 02:30N 30°05' W 093°20'0 0.0
2017-Nov-19 02:00N 30°05' W 093°20'0 0.0
2017-Nov-19 01:30N 30°05' W 093°20'0 0.0
2017-Nov-19 01:00N 30°05' W 093°20'0 0.0
2017-Nov-19 00:30N 30°05' W 093°20'0 0.0
2017-Nov-19 00:00N 30°05' W 093°20'0 0.0
2017-Nov-18 23:30N 30°05' W 093°20'0 0.0
2017-Nov-18 23:00N 30°05' W 093°20'0 0.0
2017-Nov-18 22:30N 30°05' W 093°20'0 0.0
2017-Nov-18 22:00N 30°05' W 093°20'0 0.0
2017-Nov-18 21:30N 30°05' W 093°20'0 0.0
2017-Nov-18 21:00N 30°05' W 093°20'0 0.0
2017-Nov-18 20:30N 30°05' W 093°20'0 0.0
2017-Nov-18 20:00N 30°05' W 093°20'0 0.0
2017-Nov-18 19:30N 30°05' W 093°20'0 0.0
2017-Nov-18 19:00N 30°05' W 093°20'0 0.0
2017-Nov-18 18:30N 30°05' W 093°20'0 0.0
2017-Nov-18 18:00N 30°05' W 093°20'0 0.0
2017-Nov-18 17:30N 30°05' W 093°20'0 0.0
2017-Nov-18 17:00N 30°05' W 093°20'0 0.0
2017-Nov-18 16:30N 30°05' W 093°20'0 0.0
2017-Nov-18 16:00N 30°05' W 093°20'2 3.1
2017-Nov-18 15:30N 30°06' W 093°19'0 0.7
2017-Nov-18 15:00N 30°06' W 093°18'0 0.0
2017-Nov-18 14:30N 30°06' W 093°18'0 0.0
2017-Nov-18 14:00N 30°06' W 093°18'0 0.0
2017-Nov-18 13:30N 30°06' W 093°18'0 0.1
2017-Nov-18 13:00N 30°06' W 093°18'2 3.3
2017-Nov-18 12:30N 30°07' W 093°20'3 5.2
2017-Nov-18 12:00N 30°10' W 093°19'1 1.5
2017-Nov-18 11:30N 30°10' W 093°19'2 3.2
2017-Nov-18 11:00N 30°09' W 093°20'3 6.1
2017-Nov-18 10:30N 30°06' W 093°20'1 2.2
2017-Nov-18 10:00N 30°06' W 093°18'1 1.4
2017-Nov-18 09:30N 30°05' W 093°18'0 0.6
2017-Nov-18 09:00N 30°05' W 093°17'1 2.9
2017-Nov-18 08:30N 30°04' W 093°16'1 2.4
2017-Nov-18 08:00N 30°03' W 093°16'0 0.4
2017-Nov-18 07:30N 30°03' W 093°16'0 0.2
2017-Nov-18 07:00N 30°03' W 093°16'0 0.3
2017-Nov-18 06:30N 30°02' W 093°16'0 0.8
2017-Nov-18 06:00N 30°02' W 093°15'1 2.5
2017-Nov-18 05:30N 30°02' W 093°14'2 4.4
2017-Nov-18 05:00N 29°60' W 093°13'2 5.0
2017-Nov-18 04:30N 29°58' W 093°11'2 4.6
2017-Nov-18 04:00N 29°56' W 093°09'43 4.7
2017-Nov-17 18:53N 29°51' W 092°20'2 4.8
2017-Nov-17 18:30N 29°50' W 092°18'1 3.0
2017-Nov-17 18:00N 29°49' W 092°17'3 5.0
2017-Nov-17 17:30N 29°48' W 092°15'2 5.0
2017-Nov-17 17:00N 29°47' W 092°12'1 1.3
2017-Nov-17 16:30N 29°47' W 092°11'0 0.5
2017-Nov-17 16:00N 29°47' W 092°11'2 3.8
2017-Nov-17 15:30N 29°47' W 092°09'3 5.3
2017-Nov-17 15:00N 29°48' W 092°06'3 5.2
2017-Nov-17 14:30N 29°49' W 092°03'7 4.8
2017-Nov-17 13:04N 29°51' W 091°56'0 3.0
2017-Nov-17 12:56N 29°51' W 091°55'0 0.1
2017-Nov-17 12:30N 29°51' W 091°55'0 0.1
2017-Nov-17 11:58N 29°51' W 091°55'0 0.0
2017-Nov-17 11:30N 29°51' W 091°55'0 0.2
2017-Nov-17 11:00N 29°51' W 091°55'5 3.8
2017-Nov-17 09:37N 29°49' W 091°49'1 4.6
2017-Nov-17 09:22N 29°48' W 091°49'6 0.3
2017-Nov-16 15:18N 29°51' W 091°54'2 6.3
2017-Nov-16 15:00N 29°51' W 091°56'3 6.0
2017-Nov-16 14:30N 29°50' W 091°60'3 6.2
2017-Nov-16 14:00N 29°49' W 092°03'3 5.8
2017-Nov-16 13:30N 29°48' W 092°06'3 5.4
2017-Nov-16 13:00N 29°47' W 092°09'2 4.1
2017-Nov-16 12:30N 29°47' W 092°12'0 0.0
2017-Nov-16 12:00N 29°47' W 092°12'0 0.0
2017-Nov-16 11:30N 29°47' W 092°12'0 0.0
2017-Nov-16 11:00N 29°47' W 092°12'0 0.0
2017-Nov-16 10:30N 29°47' W 092°12'0 0.0
2017-Nov-16 10:00N 29°47' W 092°12'0 0.0
2017-Nov-16 09:30N 29°47' W 092°12'0 0.0
2017-Nov-16 09:00N 29°47' W 092°12'0 0.0
2017-Nov-16 08:30N 29°47' W 092°12'0 0.0
2017-Nov-16 08:00N 29°47' W 092°12'0 0.0
2017-Nov-16 07:30N 29°47' W 092°12'0 0.0
2017-Nov-16 07:00N 29°47' W 092°12'0 0.0
2017-Nov-16 06:30N 29°47' W 092°12'0 0.0
2017-Nov-16 06:00N 29°47' W 092°12'0 0.0
2017-Nov-16 05:30N 29°47' W 092°12'0 0.5
2017-Nov-16 05:00N 29°47' W 092°12'1 1.4
2017-Nov-16 04:30N 29°47' W 092°13'1 2.2
2017-Nov-16 04:00N 29°48' W 092°14'3 5.5
2017-Nov-16 03:30N 29°49' W 092°17'3 5.0
2017-Nov-16 02:55N 29°50' W 092°19'2 4.9
2017-Nov-16 02:30N 29°51' W 092°22'40 5.1
2017-Nov-15 18:39N 29°56' W 093°07'1 5.4
2017-Nov-15 18:30N 29°56' W 093°08'2 4.8
2017-Nov-15 18:00N 29°57' W 093°10'3 5.0
2017-Nov-15 17:30N 29°59' W 093°12'2 4.9
2017-Nov-15 17:00N 30°01' W 093°14'2 4.9
2017-Nov-15 16:30N 30°03' W 093°16'3 5.1
2017-Nov-15 16:00N 30°05' W 093°17'1 1.7
2017-Nov-15 15:30N 30°06' W 093°18'2 3.2
2017-Nov-15 15:00N 30°06' W 093°20'3 6.4
2017-Nov-15 14:30N 30°10' W 093°19'1 1.7
2017-Nov-15 14:00N 30°10' W 093°19'2 4.6
2017-Nov-15 13:30N 30°08' W 093°20'3 5.2
2017-Nov-15 13:00N 30°06' W 093°20'1 1.3
2017-Nov-15 12:30N 30°05' W 093°20'0 0.0
2017-Nov-15 12:00N 30°05' W 093°20'0 0.0
2017-Nov-15 11:30N 30°05' W 093°20'0 0.0
2017-Nov-15 11:00N 30°05' W 093°20'0 0.0
2017-Nov-15 10:30N 30°05' W 093°20'0 0.0
2017-Nov-15 10:00N 30°05' W 093°20'0 0.0
2017-Nov-15 09:30N 30°05' W 093°20'0 0.0
2017-Nov-15 09:00N 30°05' W 093°20'0 0.0
2017-Nov-15 08:30N 30°05' W 093°20'0 0.9
2017-Nov-15 08:00N 30°05' W 093°20'0 0.0
2017-Nov-15 07:30N 30°05' W 093°20'0 0.0
2017-Nov-15 07:00N 30°05' W 093°20'0 0.0
2017-Nov-15 06:30N 30°05' W 093°20'0 0.0
2017-Nov-15 06:00N 30°05' W 093°20'0 0.0
2017-Nov-15 05:30N 30°05' W 093°20'0 0.0
2017-Nov-15 05:00N 30°05' W 093°20'0 0.0
2017-Nov-15 04:30N 30°05' W 093°20'0 0.0
2017-Nov-15 04:00N 30°05' W 093°20'0 0.0
2017-Nov-15 03:30N 30°05' W 093°20'0 0.0
2017-Nov-15 03:00N 30°05' W 093°20'0 0.0
2017-Nov-15 02:30N 30°05' W 093°20'0 0.0
2017-Nov-15 02:00N 30°05' W 093°20'0 0.0
2017-Nov-15 01:30N 30°05' W 093°20'0 0.0
2017-Nov-15 01:00N 30°05' W 093°20'0 0.0
2017-Nov-15 00:30N 30°05' W 093°20'0 0.0
2017-Nov-15 00:00N 30°05' W 093°20'0 0.0
2017-Nov-14 23:30N 30°05' W 093°20'0 0.8
2017-Nov-14 23:00N 30°05' W 093°20'0 0.2
2017-Nov-14 22:30N 30°05' W 093°20'0 0.2
2017-Nov-14 22:00N 30°05' W 093°20'0 0.8
2017-Nov-14 21:30N 30°05' W 093°20'0 0.0
2017-Nov-14 21:00N 30°05' W 093°20'0 0.2
2017-Nov-14 20:30N 30°05' W 093°20'0 0.2
2017-Nov-14 20:00N 30°05' W 093°20'0 0.4
2017-Nov-14 19:30N 30°05' W 093°20'0 0.0
2017-Nov-14 19:00N 30°05' W 093°20'0 0.0
2017-Nov-14 18:30N 30°05' W 093°20'1 2.6
2017-Nov-14 18:00N 30°06' W 093°19'1 2.0
2017-Nov-14 17:30N 30°06' W 093°18'1 2.4
2017-Nov-14 17:00N 30°06' W 093°20'3 6.3
2017-Nov-14 16:30N 30°09' W 093°20'3 6.3
2017-Nov-14 16:00N 30°12' W 093°17'3 5.6
2017-Nov-14 15:30N 30°14' W 093°15'0 0.1
2017-Nov-14 15:00N 30°14' W 093°15'3 5.1
2017-Nov-14 14:30N 30°12' W 093°17'3 5.4
2017-Nov-14 13:59N 30°10' W 093°19'2 4.6
2017-Nov-14 13:30N 30°08' W 093°20'2 4.8
2017-Nov-14 13:00N 30°05' W 093°20'1 1.1
2017-Nov-14 12:30N 30°05' W 093°20'0 0.0
2017-Nov-13 22:49N 30°05' W 093°20'0 0.0
2017-Nov-13 22:29N 30°05' W 093°20'0 0.0
2017-Nov-13 21:59N 30°05' W 093°20'52 1.7
2017-Nov-12 14:32N 29°51' W 092°21'0 6.1
2017-Nov-12 14:28N 29°51' W 092°21'3 5.6
2017-Nov-12 13:56N 29°50' W 092°18'3 5.8
2017-Nov-12 13:28N 29°48' W 092°15'3 5.6
2017-Nov-12 13:00N 29°47' W 092°12'1 1.9
2017-Nov-12 12:30N 29°47' W 092°11'1 1.4
2017-Nov-12 11:54N 29°47' W 092°12'1 0.8
2017-Nov-12 10:43N 29°48' W 092°13'0 0.0
2017-Nov-12 10:27N 29°48' W 092°13'0 0.0
2017-Nov-12 09:57N 29°48' W 092°13'0 0.3
2017-Nov-12 09:29N 29°48' W 092°13'1 1.2
2017-Nov-12 08:59N 29°48' W 092°14'1 1.3
2017-Nov-12 08:29N 29°48' W 092°15'59 1.5
2017-Nov-10 16:30N 30°05' W 093°20'1 1.3
2017-Nov-10 16:00N 30°05' W 093°20'0 0.8
2017-Nov-10 15:30N 30°05' W 093°20'3 6.3
2017-Nov-10 15:00N 30°08' W 093°20'2 4.8
2017-Nov-10 14:30N 30°10' W 093°19'1 1.8
2017-Nov-10 14:00N 30°09' W 093°20'3 6.0
2017-Nov-10 13:30N 30°06' W 093°20'3 5.2
2017-Nov-10 13:00N 30°04' W 093°21'0 0.9
2017-Nov-10 12:30N 30°04' W 093°20'0 1.0
2017-Nov-10 12:00N 30°05' W 093°20'0 0.0
2017-Nov-10 11:30N 30°05' W 093°20'0 0.0
2017-Nov-10 11:00N 30°05' W 093°20'0 0.0
2017-Nov-10 10:30N 30°05' W 093°20'0 0.0
2017-Nov-10 10:00N 30°05' W 093°20'1 1.7
2017-Nov-10 09:30N 30°05' W 093°20'1 1.5
2017-Nov-10 09:00N 30°06' W 093°19'2 3.6
2017-Nov-10 08:30N 30°05' W 093°20'0 0.0
2017-Nov-10 08:00N 30°05' W 093°20'0 0.0
2017-Nov-10 07:30N 30°05' W 093°20'0 0.0
2017-Nov-10 07:00N 30°05' W 093°20'0 0.0
2017-Nov-10 06:30N 30°05' W 093°20'0 0.0
2017-Nov-10 06:00N 30°05' W 093°20'0 0.4
2017-Nov-10 05:30N 30°05' W 093°20'0 0.4
2017-Nov-10 05:00N 30°05' W 093°20'0 0.0
2017-Nov-10 04:30N 30°05' W 093°20'0 0.0
2017-Nov-10 04:00N 30°05' W 093°20'0 0.0
2017-Nov-10 03:30N 30°05' W 093°20'0 0.0
2017-Nov-10 03:00N 30°05' W 093°20'0 0.0
2017-Nov-10 02:30N 30°05' W 093°20'0 0.0
2017-Nov-10 02:00N 30°05' W 093°20'1 1.3
2017-Nov-10 01:30N 30°05' W 093°20'2 3.2
2017-Nov-10 01:00N 30°04' W 093°21'  
Track history (hours):
 
Tides and Currents Weather Stations Pressure Air Temp Water Temp Dewpoint Dewpoint Depression Visibility Wind Speed Wind Dir Waves Ship Positions

Matt Devall

Owner: MATT DEVALL INC, HACKBERRY, LA. More information available from US FCC via Universal Licensing System and Coast Guard Vessel Documentation Center.

Last reported at 2017-Nov-20 00:30 UTC. Time now 2017-Nov-22 09:20 UTC.
Position N 30°09' W 093°20'.

Length 17 m; draft 2.6 m.

MMSI: 366974120.

Date/timePositionNaut miles runAvg speedWind from/ knotsBaromVisibWave heightAir tempDewpointWater temp
2017-Nov-20 00:30N 30°09' W 093°20'2 3.7
2017-Nov-20 00:00N 30°11' W 093°19'2 4.3
2017-Nov-19 23:30N 30°09' W 093°20'3 6.9
2017-Nov-19 23:00N 30°06' W 093°20'2 3.5
2017-Nov-19 22:30N 30°04' W 093°21'0 0.9
2017-Nov-19 22:00N 30°05' W 093°20'0 0.0
2017-Nov-19 21:30N 30°05' W 093°20'0 0.0
2017-Nov-19 21:00N 30°05' W 093°20'0 0.0
2017-Nov-19 20:30N 30°05' W 093°20'0 0.1
2017-Nov-19 20:00N 30°05' W 093°20'1 1.8
2017-Nov-19 19:30N 30°05' W 093°20'1 1.2
2017-Nov-19 19:00N 30°06' W 093°19'0 0.2
2017-Nov-19 18:30N 30°06' W 093°19'2 3.2
2017-Nov-19 18:00N 30°05' W 093°20'0 0.1
2017-Nov-19 17:30N 30°05' W 093°20'0 0.0
2017-Nov-19 17:00N 30°05' W 093°20'0 0.0
2017-Nov-19 16:30N 30°05' W 093°20'0 0.0
2017-Nov-19 16:00N 30°05' W 093°20'0 0.0
2017-Nov-19 15:30N 30°05' W 093°20'0 0.0
2017-Nov-19 15:00N 30°05' W 093°20'0 0.0
2017-Nov-19 14:30N 30°05' W 093°20'0 0.0
2017-Nov-19 14:00N 30°05' W 093°20'0 0.0
2017-Nov-19 13:30N 30°05' W 093°20'0 0.0
2017-Nov-19 13:00N 30°05' W 093°20'1 1.0
2017-Nov-19 12:30N 30°05' W 093°20'0 0.0
2017-Nov-19 12:00N 30°05' W 093°20'0 0.4
2017-Nov-19 11:30N 30°05' W 093°20'0 0.9
2017-Nov-19 11:00N 30°05' W 093°20'3 5.9
2017-Nov-19 10:30N 30°08' W 093°20'0 0.3
2017-Nov-19 10:00N 30°08' W 093°19'0 0.0
2017-Nov-19 09:30N 30°08' W 093°19'0 0.0
2017-Nov-19 09:00N 30°08' W 093°19'0 0.0
2017-Nov-19 08:30N 30°08' W 093°19'0 0.3
2017-Nov-19 08:00N 30°08' W 093°19'0 0.1
2017-Nov-19 07:30N 30°08' W 093°19'2 3.0
2017-Nov-19 07:00N 30°07' W 093°20'2 3.8
2017-Nov-19 06:30N 30°05' W 093°20'0 0.0
2017-Nov-19 06:00N 30°05' W 093°20'0 0.0
2017-Nov-19 05:30N 30°05' W 093°20'0 0.0
2017-Nov-19 05:00N 30°05' W 093°20'0 0.0
2017-Nov-19 04:30N 30°05' W 093°20'0 0.0
2017-Nov-19 04:00N 30°05' W 093°20'0 0.0
2017-Nov-19 03:30N 30°05' W 093°20'0 0.0
2017-Nov-19 03:00N 30°05' W 093°20'0 0.0
2017-Nov-19 02:30N 30°05' W 093°20'0 0.0
2017-Nov-19 02:00N 30°05' W 093°20'0 0.0
2017-Nov-19 01:30N 30°05' W 093°20'0 0.0
2017-Nov-19 01:00N 30°05' W 093°20'0 0.0
2017-Nov-19 00:30N 30°05' W 093°20'0 0.0
2017-Nov-19 00:00N 30°05' W 093°20'0 0.0
2017-Nov-18 23:30N 30°05' W 093°20'0 0.0
2017-Nov-18 23:00N 30°05' W 093°20'0 0.0
2017-Nov-18 22:30N 30°05' W 093°20'0 0.0
2017-Nov-18 22:00N 30°05' W 093°20'0 0.0
2017-Nov-18 21:30N 30°05' W 093°20'0 0.0
2017-Nov-18 21:00N 30°05' W 093°20'0 0.0
2017-Nov-18 20:30N 30°05' W 093°20'0 0.0
2017-Nov-18 20:00N 30°05' W 093°20'0 0.0
2017-Nov-18 19:30N 30°05' W 093°20'0 0.0
2017-Nov-18 19:00N 30°05' W 093°20'0 0.0
2017-Nov-18 18:30N 30°05' W 093°20'0 0.0
2017-Nov-18 18:00N 30°05' W 093°20'0 0.0
2017-Nov-18 17:30N 30°05' W 093°20'0 0.0
2017-Nov-18 17:00N 30°05' W 093°20'0 0.0
2017-Nov-18 16:30N 30°05' W 093°20'0 0.0
2017-Nov-18 16:00N 30°05' W 093°20'2 3.1
2017-Nov-18 15:30N 30°06' W 093°19'0 0.7
2017-Nov-18 15:00N 30°06' W 093°18'0 0.0
2017-Nov-18 14:30N 30°06' W 093°18'0 0.0
2017-Nov-18 14:00N 30°06' W 093°18'0 0.0
2017-Nov-18 13:30N 30°06' W 093°18'0 0.1
2017-Nov-18 13:00N 30°06' W 093°18'2 3.3
2017-Nov-18 12:30N 30°07' W 093°20'3 5.2
2017-Nov-18 12:00N 30°10' W 093°19'1 1.5
2017-Nov-18 11:30N 30°10' W 093°19'2 3.2
2017-Nov-18 11:00N 30°09' W 093°20'3 6.1
2017-Nov-18 10:30N 30°06' W 093°20'1 2.2
2017-Nov-18 10:00N 30°06' W 093°18'1 1.4
2017-Nov-18 09:30N 30°05' W 093°18'0 0.6
2017-Nov-18 09:00N 30°05' W 093°17'1 2.9
2017-Nov-18 08:30N 30°04' W 093°16'1 2.4
2017-Nov-18 08:00N 30°03' W 093°16'0 0.4
2017-Nov-18 07:30N 30°03' W 093°16'0 0.2
2017-Nov-18 07:00N 30°03' W 093°16'0 0.3
2017-Nov-18 06:30N 30°02' W 093°16'0 0.8
2017-Nov-18 06:00N 30°02' W 093°15'1 2.5
2017-Nov-18 05:30N 30°02' W 093°14'2 4.4
2017-Nov-18 05:00N 29°60' W 093°13'2 5.0
2017-Nov-18 04:30N 29°58' W 093°11'2 4.6
2017-Nov-18 04:00N 29°56' W 093°09'43 4.7
2017-Nov-17 18:53N 29°51' W 092°20'2 4.8
2017-Nov-17 18:30N 29°50' W 092°18'1 3.0
2017-Nov-17 18:00N 29°49' W 092°17'3 5.0
2017-Nov-17 17:30N 29°48' W 092°15'2 5.0
2017-Nov-17 17:00N 29°47' W 092°12'1 1.3
2017-Nov-17 16:30N 29°47' W 092°11'0 0.5
2017-Nov-17 16:00N 29°47' W 092°11'2 3.8
2017-Nov-17 15:30N 29°47' W 092°09'3 5.3
2017-Nov-17 15:00N 29°48' W 092°06'3 5.2
2017-Nov-17 14:30N 29°49' W 092°03'7 4.8
2017-Nov-17 13:04N 29°51' W 091°56'0 3.0
2017-Nov-17 12:56N 29°51' W 091°55'0 0.1
2017-Nov-17 12:30N 29°51' W 091°55'0 0.1
2017-Nov-17 11:58N 29°51' W 091°55'0 0.0
2017-Nov-17 11:30N 29°51' W 091°55'0 0.2
2017-Nov-17 11:00N 29°51' W 091°55'5 3.8
2017-Nov-17 09:37N 29°49' W 091°49'1 4.6
2017-Nov-17 09:22N 29°48' W 091°49'6 0.3
2017-Nov-16 15:18N 29°51' W 091°54'2 6.3
2017-Nov-16 15:00N 29°51' W 091°56'3 6.0
2017-Nov-16 14:30N 29°50' W 091°60'3 6.2
2017-Nov-16 14:00N 29°49' W 092°03'3 5.8
2017-Nov-16 13:30N 29°48' W 092°06'3 5.4
2017-Nov-16 13:00N 29°47' W 092°09'2 4.1
2017-Nov-16 12:30N 29°47' W 092°12'0 0.0
2017-Nov-16 12:00N 29°47' W 092°12'0 0.0
2017-Nov-16 11:30N 29°47' W 092°12'0 0.0
2017-Nov-16 11:00N 29°47' W 092°12'0 0.0
2017-Nov-16 10:30N 29°47' W 092°12'0 0.0
2017-Nov-16 10:00N 29°47' W 092°12'0 0.0
2017-Nov-16 09:30N 29°47' W 092°12'0 0.0
2017-Nov-16 09:00N 29°47' W 092°12'0 0.0
2017-Nov-16 08:30N 29°47' W 092°12'0 0.0
2017-Nov-16 08:00N 29°47' W 092°12'0 0.0
2017-Nov-16 07:30N 29°47' W 092°12'0 0.0
2017-Nov-16 07:00N 29°47' W 092°12'0 0.0
2017-Nov-16 06:30N 29°47' W 092°12'0 0.0
2017-Nov-16 06:00N 29°47' W 092°12'0 0.0
2017-Nov-16 05:30N 29°47' W 092°12'0 0.5
2017-Nov-16 05:00N 29°47' W 092°12'1 1.4
2017-Nov-16 04:30N 29°47' W 092°13'1 2.2
2017-Nov-16 04:00N 29°48' W 092°14'3 5.5
2017-Nov-16 03:30N 29°49' W 092°17'3 5.0
2017-Nov-16 02:55N 29°50' W 092°19'2 4.9
2017-Nov-16 02:30N 29°51' W 092°22'40 5.1
2017-Nov-15 18:39N 29°56' W 093°07'1 5.4
2017-Nov-15 18:30N 29°56' W 093°08'2 4.8
2017-Nov-15 18:00N 29°57' W 093°10'3 5.0
2017-Nov-15 17:30N 29°59' W 093°12'2 4.9
2017-Nov-15 17:00N 30°01' W 093°14'2 4.9
2017-Nov-15 16:30N 30°03' W 093°16'3 5.1
2017-Nov-15 16:00N 30°05' W 093°17'1 1.7
2017-Nov-15 15:30N 30°06' W 093°18'2 3.2
2017-Nov-15 15:00N 30°06' W 093°20'3 6.4
2017-Nov-15 14:30N 30°10' W 093°19'1 1.7
2017-Nov-15 14:00N 30°10' W 093°19'2 4.6
2017-Nov-15 13:30N 30°08' W 093°20'3 5.2
2017-Nov-15 13:00N 30°06' W 093°20'1 1.3
2017-Nov-15 12:30N 30°05' W 093°20'0 0.0
2017-Nov-15 12:00N 30°05' W 093°20'0 0.0
2017-Nov-15 11:30N 30°05' W 093°20'0 0.0
2017-Nov-15 11:00N 30°05' W 093°20'0 0.0
2017-Nov-15 10:30N 30°05' W 093°20'0 0.0
2017-Nov-15 10:00N 30°05' W 093°20'0 0.0
2017-Nov-15 09:30N 30°05' W 093°20'0 0.0
2017-Nov-15 09:00N 30°05' W 093°20'0 0.0
2017-Nov-15 08:30N 30°05' W 093°20'0 0.9
2017-Nov-15 08:00N 30°05' W 093°20'0 0.0
2017-Nov-15 07:30N 30°05' W 093°20'0 0.0
2017-Nov-15 07:00N 30°05' W 093°20'0 0.0
2017-Nov-15 06:30N 30°05' W 093°20'0 0.0
2017-Nov-15 06:00N 30°05' W 093°20'0 0.0
2017-Nov-15 05:30N 30°05' W 093°20'0 0.0
2017-Nov-15 05:00N 30°05' W 093°20'0 0.0
2017-Nov-15 04:30N 30°05' W 093°20'0 0.0
2017-Nov-15 04:00N 30°05' W 093°20'0 0.0
2017-Nov-15 03:30N 30°05' W 093°20'0 0.0
2017-Nov-15 03:00N 30°05' W 093°20'0 0.0
2017-Nov-15 02:30N 30°05' W 093°20'0 0.0
2017-Nov-15 02:00N 30°05' W 093°20'0 0.0
2017-Nov-15 01:30N 30°05' W 093°20'0 0.0
2017-Nov-15 01:00N 30°05' W 093°20'0 0.0
2017-Nov-15 00:30N 30°05' W 093°20'0 0.0
2017-Nov-15 00:00N 30°05' W 093°20'0 0.0
2017-Nov-14 23:30N 30°05' W 093°20'0 0.8
2017-Nov-14 23:00N 30°05' W 093°20'0 0.2
2017-Nov-14 22:30N 30°05' W 093°20'0 0.2
2017-Nov-14 22:00N 30°05' W 093°20'0 0.8
2017-Nov-14 21:30N 30°05' W 093°20'0 0.0
2017-Nov-14 21:00N 30°05' W 093°20'0 0.2
2017-Nov-14 20:30N 30°05' W 093°20'0 0.2
2017-Nov-14 20:00N 30°05' W 093°20'0 0.4
2017-Nov-14 19:30N 30°05' W 093°20'0 0.0
2017-Nov-14 19:00N 30°05' W 093°20'0 0.0
2017-Nov-14 18:30N 30°05' W 093°20'1 2.6
2017-Nov-14 18:00N 30°06' W 093°19'1 2.0
2017-Nov-14 17:30N 30°06' W 093°18'1 2.4
2017-Nov-14 17:00N 30°06' W 093°20'3 6.3
2017-Nov-14 16:30N 30°09' W 093°20'3 6.3
2017-Nov-14 16:00N 30°12' W 093°17'3 5.6
2017-Nov-14 15:30N 30°14' W 093°15'0 0.1
2017-Nov-14 15:00N 30°14' W 093°15'3 5.1
2017-Nov-14 14:30N 30°12' W 093°17'3 5.4
2017-Nov-14 13:59N 30°10' W 093°19'2 4.6
2017-Nov-14 13:30N 30°08' W 093°20'2 4.8
2017-Nov-14 13:00N 30°05' W 093°20'1 1.1
2017-Nov-14 12:30N 30°05' W 093°20'0 0.0
2017-Nov-13 22:49N 30°05' W 093°20'0 0.0
2017-Nov-13 22:29N 30°05' W 093°20'0 0.0
2017-Nov-13 21:59N 30°05' W 093°20'52 1.7
2017-Nov-12 14:32N 29°51' W 092°21'0 6.1
2017-Nov-12 14:28N 29°51' W 092°21'3 5.6
2017-Nov-12 13:56N 29°50' W 092°18'3 5.8
2017-Nov-12 13:28N 29°48' W 092°15'3 5.6
2017-Nov-12 13:00N 29°47' W 092°12'1 1.9
2017-Nov-12 12:30N 29°47' W 092°11'1 1.4
2017-Nov-12 11:54N 29°47' W 092°12'1 0.8
2017-Nov-12 10:43N 29°48' W 092°13'0 0.0
2017-Nov-12 10:27N 29°48' W 092°13'0 0.0
2017-Nov-12 09:57N 29°48' W 092°13'0 0.3
2017-Nov-12 09:29N 29°48' W 092°13'1 1.2
2017-Nov-12 08:59N 29°48' W 092°14'1 1.3
2017-Nov-12 08:29N 29°48' W 092°15'59 1.5
2017-Nov-10 16:30N 30°05' W 093°20'1 1.3
2017-Nov-10 16:00N 30°05' W 093°20'0 0.8
2017-Nov-10 15:30N 30°05' W 093°20'3 6.3
2017-Nov-10 15:00N 30°08' W 093°20'2 4.8
2017-Nov-10 14:30N 30°10' W 093°19'1 1.8
2017-Nov-10 14:00N 30°09' W 093°20'3 6.0
2017-Nov-10 13:30N 30°06' W 093°20'3 5.2
2017-Nov-10 13:00N 30°04' W 093°21'0 0.9
2017-Nov-10 12:30N 30°04' W 093°20'0 1.0
2017-Nov-10 12:00N 30°05' W 093°20'0 0.0
2017-Nov-10 11:30N 30°05' W 093°20'0 0.0
2017-Nov-10 11:00N 30°05' W 093°20'0 0.0
2017-Nov-10 10:30N 30°05' W 093°20'0 0.0
2017-Nov-10 10:00N 30°05' W 093°20'1 1.7
2017-Nov-10 09:30N 30°05' W 093°20'1 1.5
2017-Nov-10 09:00N 30°06' W 093°19'2 3.6
2017-Nov-10 08:30N 30°05' W 093°20'0 0.0
2017-Nov-10 08:00N 30°05' W 093°20'0 0.0
2017-Nov-10 07:30N 30°05' W 093°20'0 0.0
2017-Nov-10 07:00N 30°05' W 093°20'0 0.0
2017-Nov-10 06:30N 30°05' W 093°20'0 0.0
2017-Nov-10 06:00N 30°05' W 093°20'0 0.4
2017-Nov-10 05:30N 30°05' W 093°20'0 0.4
2017-Nov-10 05:00N 30°05' W 093°20'0 0.0
2017-Nov-10 04:30N 30°05' W 093°20'0 0.0
2017-Nov-10 04:00N 30°05' W 093°20'0 0.0
2017-Nov-10 03:30N 30°05' W 093°20'0 0.0
2017-Nov-10 03:00N 30°05' W 093°20'0 0.0
2017-Nov-10 02:30N 30°05' W 093°20'0 0.0
2017-Nov-10 02:00N 30°05' W 093°20'1 1.3
2017-Nov-10 01:30N 30°05' W 093°20'2 3.2
2017-Nov-10 01:00N 30°04' W 093°21'  

Dump ship's entire track history